Sunday, June 17, 2018, 10:12 PM EDT
Back to Local

KBDR, Sikorsky Memorial Airport

Location: Stratford, CT, United States Lat: 41.167
Local Time: 10:12 PM EDT ( 2:12 GMT) Lon: -73.133
Time Zone: US/Eastern Elev: 9 ft

Show me the last for .
Show Decoded

2018-06-17 21:52 METAR KBDR 180152Z 21006KT 10SM CLR 23/15 A3006 RMK AO2 SLP180 T02280150 =
2018-06-17 20:52 METAR KBDR 180052Z 22005KT 10SM CLR 23/16 A3006 RMK AO2 SLP178 T02330156 =
2018-06-17 19:52 METAR KBDR 172352Z 19010KT 10SM CLR 25/13 A3006 RMK AO2 SLP179 T02500128 10300
                 20250 53000 =
2018-06-17 18:52 METAR KBDR 172252Z 18008KT 10SM CLR 28/12 A3006 RMK AO2 SLP178 T02780122 =
2018-06-17 17:52 METAR KBDR 172152Z 17007KT 10SM CLR 28/12 A3005 RMK AO2 SLP177 T02780117 =
2018-06-17 16:52 METAR KBDR 172052Z 17006KT 10SM CLR 29/11 A3006 RMK AO2 SLP178 T02940111 55001 =
2018-06-17 15:52 METAR KBDR 171952Z 20007KT 10SM CLR 30/09 A3005 RMK AO2 SLP177 T03000089 =
2018-06-17 14:52 METAR KBDR 171852Z 18007KT 10SM CLR 29/09 A3006 RMK AO2 SLP178 T02890094 =
2018-06-17 13:52 METAR KBDR 171752Z 16007KT 10SM CLR 28/11 A3006 RMK AO2 SLP179 T02780111 10278
                 20206 58014 =
2018-06-17 12:52 METAR KBDR 171652Z 19007KT 10SM CLR 27/13 A3007 RMK AO2 SLP184 T02670133 =
2018-06-17 11:52 METAR KBDR 171552Z 21007KT 10SM CLR 24/14 A3009 RMK AO2 SLP190 T02440144 =
2018-06-17 10:52 METAR KBDR 171452Z 22006KT 10SM CLR 23/15 A3010 RMK AO2 SLP194 T02280150 53012 =
2018-06-17 09:52 METAR KBDR 171352Z 22005KT 10SM CLR 22/14 A3008 RMK AO2 SLP187 T02170139 =
2018-06-17 08:52 METAR KBDR 171252Z 21003KT 10SM CLR 22/14 A3007 RMK AO2 SLP183 T02220144 =
2018-06-17 07:52 METAR KBDR 171152Z 00000KT 10SM CLR 21/14 A3007 RMK AO2 SLP182 T02110139 10211
                 20144 51013 =
2018-06-17 06:52 METAR KBDR 171052Z 00000KT 10SM CLR 18/13 A3006 RMK AO2 SLP177 T01830133 =
2018-06-17 05:52 METAR KBDR 170952Z AUTO 00000KT 10SM CLR 16/12 A3005 RMK AO2 SLP175 T01560122 =
2018-06-17 04:52 METAR KBDR 170852Z AUTO 33003KT 10SM CLR 16/12 A3003 RMK AO2 SLP169 T01560122
                 50002 =
2018-06-17 03:52 METAR KBDR 170752Z AUTO 00000KT 10SM CLR 16/12 A3004 RMK AO2 SLP172 T01610122 =
2018-06-17 02:52 METAR KBDR 170652Z AUTO 00000KT 10SM CLR 16/12 A3003 RMK AO2 SLP169 T01560122 =
2018-06-17 01:52 METAR KBDR 170552Z AUTO 00000KT 10SM CLR 17/12 A3002 RMK AO2 SLP167 T01670122
                 10233 20161 50000 =
2018-06-17 00:52 METAR KBDR 170452Z AUTO 00000KT 10SM CLR 18/13 A3003 RMK AO2 SLP169 T01830128
                 402780139 =
2018-06-16 23:52 METAR KBDR 170352Z AUTO 22003KT 10SM CLR 19/13 A3003 RMK AO2 SLP170 T01940133 =
2018-06-16 22:52 METAR KBDR 170252Z AUTO 24003KT 10SM CLR 20/13 A3002 RMK AO2 SLP166 T02000128
                 51015 =

Support USWX by starting your Amazon purchase here.